createdAt,value
2019-02-14T00:02:23.854Z,97.60
2019-02-14T00:06:30.241Z,97.60
2019-02-14T00:10:38.761Z,97.40
2019-02-14T00:14:45.890Z,97.10
2019-02-14T00:18:53.867Z,97.40
2019-02-14T00:23:00.386Z,97.30
2019-02-14T00:27:07.101Z,97.20
2019-02-14T00:31:14.436Z,97.20
2019-02-14T00:35:25.135Z,97.20
2019-02-14T00:39:30.134Z,97.10
2019-02-14T00:43:36.618Z,98.30
2019-02-14T00:47:43.033Z,97.00
2019-02-14T00:51:53.513Z,96.90
2019-02-14T00:55:59.904Z,96.80
2019-02-14T01:00:06.926Z,96.60
2019-02-14T01:04:35.980Z,96.80
2019-02-14T01:08:42.959Z,96.30
2019-02-14T01:12:49.293Z,96.40
2019-02-14T01:16:58.179Z,97.40
2019-02-14T01:21:04.556Z,96.50
2019-02-14T01:25:14.245Z,96.60
2019-02-14T01:29:20.525Z,96.70
2019-02-14T01:33:28.529Z,96.80
2019-02-14T01:37:36.268Z,96.80
2019-02-14T01:41:44.657Z,96.60
2019-02-14T01:45:52.528Z,96.50
2019-02-14T01:49:59.259Z,96.50
2019-02-14T01:54:05.591Z,96.50
2019-02-14T01:58:14.986Z,96.40
2019-02-14T02:02:21.369Z,96.40
2019-02-14T02:06:27.972Z,96.70
2019-02-14T02:10:36.116Z,96.80
2019-02-14T02:14:44.531Z,96.90
2019-02-14T02:18:53.074Z,97.00
2019-02-14T02:22:58.557Z,96.90
2019-02-14T02:27:05.164Z,97.10
2019-02-14T02:31:14.125Z,97.20
2019-02-14T02:35:20.396Z,97.40
2019-02-14T02:39:26.860Z,97.50
2019-02-14T02:43:37.075Z,97.70
2019-02-14T02:47:44.589Z,97.20
2019-02-14T02:51:55.012Z,97.30
2019-02-14T02:56:01.630Z,97.40
2019-02-14T03:00:14.979Z,97.30
2019-02-14T03:04:22.468Z,97.40
2019-02-14T03:08:28.836Z,97.50
2019-02-14T03:12:40.136Z,97.40
2019-02-14T03:16:46.613Z,97.40
2019-02-14T03:20:57.605Z,97.30
2019-02-14T03:25:04.497Z,97.30
2019-02-14T03:29:12.524Z,97.50
2019-02-14T03:33:19.087Z,97.50
2019-02-14T03:37:26.802Z,97.40
2019-02-14T03:41:36.802Z,97.40
2019-02-14T03:45:43.429Z,97.40
2019-02-14T03:49:49.755Z,97.50
2019-02-14T03:53:57.365Z,98.70
2019-02-14T03:58:03.738Z,97.70
2019-02-14T04:02:10.234Z,97.70
2019-02-14T04:06:14.709Z,97.30
2019-02-14T04:10:23.199Z,97.50
2019-02-14T04:14:30.633Z,97.60
2019-02-14T04:18:38.984Z,97.80
2019-02-14T04:22:45.264Z,97.90
2019-02-14T04:26:56.856Z,97.80
2019-02-14T04:31:07.401Z,97.90
2019-02-14T04:35:37.768Z,98.00
2019-02-14T04:39:44.067Z,98.10
2019-02-14T04:43:53.723Z,98.00
2019-02-14T04:48:01.696Z,98.10
2019-02-14T04:52:08.240Z,98.20
2019-02-14T04:56:16.061Z,98.10
2019-02-14T05:00:23.637Z,98.10
2019-02-14T05:04:29.960Z,97.90
2019-02-14T05:08:37.730Z,98.90
2019-02-14T05:12:44.904Z,97.60
2019-02-14T05:16:53.305Z,97.50
2019-02-14T05:20:59.652Z,96.90
2019-02-14T05:25:06.745Z,96.80
2019-02-14T05:29:16.116Z,96.60
2019-02-14T05:33:24.047Z,96.50
2019-02-14T05:37:30.465Z,96.40
2019-02-14T05:41:40.201Z,96.40
2019-02-14T05:45:46.593Z,95.90
2019-02-14T05:49:54.265Z,96.00
2019-02-14T05:54:00.622Z,95.50
2019-02-14T05:58:08.773Z,95.50
2019-02-14T06:02:15.539Z,97.20
2019-02-14T06:06:22.683Z,95.50
2019-02-14T06:10:29.019Z,95.50
2019-02-14T06:14:57.598Z,95.60
2019-02-14T06:19:03.900Z,95.80
2019-02-14T06:23:10.613Z,95.50
2019-02-14T06:27:18.777Z,95.70
2019-02-14T06:31:25.602Z,95.70
2019-02-14T06:39:52.587Z,96.00
2019-02-14T06:44:05.303Z,95.50
2019-02-14T06:48:18.967Z,95.30
2019-02-14T06:52:36.647Z,95.70
2019-02-14T06:56:51.128Z,95.40
2019-02-14T07:01:04.641Z,95.50
2019-02-14T07:05:16.114Z,95.00
2019-02-14T07:09:25.531Z,94.90
2019-02-14T07:13:52.152Z,94.80
2019-02-14T07:18:00.054Z,94.90
2019-02-14T07:22:06.708Z,95.10
2019-02-14T07:26:13.072Z,95.30
2019-02-14T07:30:23.615Z,95.30
2019-02-14T07:34:32.295Z,95.20
2019-02-14T07:38:40.888Z,95.50
2019-02-14T07:42:49.352Z,95.50
2019-02-14T07:46:56.211Z,95.50
2019-02-14T07:51:02.614Z,95.50
2019-02-14T07:55:11.347Z,95.60
2019-02-14T07:59:17.935Z,95.20
2019-02-14T08:03:27.070Z,95.10
2019-02-14T08:07:36.173Z,95.20
2019-02-14T08:11:42.874Z,94.80
2019-02-14T08:15:52.267Z,94.90
2019-02-14T08:19:58.794Z,94.80
2019-02-14T08:24:05.113Z,94.90
2019-02-14T08:28:09.950Z,94.60
2019-02-14T08:32:16.301Z,94.70
2019-02-14T08:36:26.751Z,94.30
2019-02-14T08:41:13.257Z,95.00
2019-02-14T08:45:20.136Z,94.10
2019-02-14T08:49:26.548Z,94.10
2019-02-14T08:53:33.049Z,93.50
2019-02-14T08:57:39.971Z,93.50
2019-02-14T09:01:49.185Z,93.40
2019-02-14T09:05:57.401Z,93.20
2019-02-14T09:10:05.322Z,93.50
2019-02-14T09:14:15.108Z,93.60
2019-02-14T09:18:22.816Z,93.30
2019-02-14T09:23:14.769Z,93.10
2019-02-14T09:27:21.298Z,93.20
2019-02-14T09:31:31.272Z,94.00
2019-02-14T09:35:38.149Z,92.90
2019-02-14T09:39:45.952Z,93.20
2019-02-14T09:44:11.263Z,92.60
2019-02-14T09:48:19.007Z,91.80
2019-02-14T09:52:25.510Z,92.50
2019-02-14T09:56:32.821Z,93.50
2019-02-14T10:00:41.458Z,92.60
2019-02-14T10:04:51.528Z,92.20
2019-02-14T10:08:58.070Z,91.50
2019-02-14T10:13:04.952Z,93.20
2019-02-14T10:17:21.845Z,92.00
2019-02-14T10:21:21.952Z,91.80
2019-02-14T10:25:30.081Z,92.40
2019-02-14T10:29:36.463Z,92.00
2019-02-14T10:33:42.941Z,92.20
2019-02-14T10:37:50.384Z,91.60
2019-02-14T10:41:56.878Z,91.90
2019-02-14T10:46:03.209Z,91.90
2019-02-14T10:50:31.999Z,91.10
2019-02-14T10:54:39.863Z,91.30
2019-02-14T10:58:50.271Z,91.40
2019-02-14T11:02:56.632Z,91.00
2019-02-14T11:07:03.492Z,90.70
2019-02-14T11:11:10.357Z,90.80
2019-02-14T11:15:18.218Z,91.60
2019-02-14T11:19:24.671Z,91.20
2019-02-14T11:23:31.776Z,90.90
2019-02-14T11:27:39.216Z,91.10
2019-02-14T11:31:48.801Z,90.70
2019-02-14T11:35:58.141Z,90.60
2019-02-14T11:44:39.729Z,90.10
2019-02-14T11:48:45.584Z,90.00
2019-02-14T11:53:14.170Z,89.40
2019-02-14T11:57:21.214Z,88.80
2019-02-14T12:01:31.289Z,88.60
2019-02-14T12:05:37.603Z,88.00
2019-02-14T12:09:44.153Z,89.20
2019-02-14T12:13:51.586Z,88.70
2019-02-14T12:17:59.211Z,87.90
2019-02-14T12:22:05.603Z,87.90
2019-02-14T12:26:13.323Z,87.20
2019-02-14T12:30:19.603Z,88.30
2019-02-14T12:34:26.192Z,88.30
2019-02-14T12:38:33.045Z,90.10
2019-02-14T12:42:39.563Z,86.60
2019-02-14T12:46:45.954Z,85.00
2019-02-14T12:51:14.042Z,84.30
2019-02-14T12:55:21.417Z,85.10
2019-02-14T13:03:33.817Z,88.80
2019-02-14T13:07:41.455Z,84.80
2019-02-14T13:15:56.562Z,85.80
2019-02-14T13:20:07.033Z,87.30
2019-02-14T13:24:19.548Z,87.70
2019-02-14T13:28:27.162Z,87.50
2019-02-14T13:32:36.823Z,88.00
2019-02-14T13:36:43.093Z,88.40
2019-02-14T13:40:51.452Z,88.60
2019-02-14T13:44:57.742Z,87.60
2019-02-14T13:49:04.450Z,87.00
2019-02-14T13:53:12.622Z,86.70
2019-02-14T13:57:20.327Z,87.10
2019-02-14T14:01:26.611Z,86.90
2019-02-14T14:05:36.089Z,89.90
2019-02-14T14:13:56.219Z,86.10
2019-02-14T14:18:02.583Z,85.30
2019-02-14T14:22:11.942Z,85.80
2019-02-14T14:26:18.278Z,86.50
2019-02-14T14:30:26.308Z,87.40
2019-02-14T14:34:31.070Z,90.10
2019-02-14T14:38:37.710Z,88.10
2019-02-14T14:42:50.047Z,88.20
2019-02-14T14:47:03.407Z,88.80
2019-02-14T14:51:11.277Z,89.30
2019-02-14T14:55:17.944Z,89.80
2019-02-14T14:59:24.255Z,90.30
2019-02-14T15:03:31.259Z,90.70
2019-02-14T15:07:41.671Z,91.00
2019-02-14T15:16:14.964Z,91.70
2019-02-14T15:20:22.355Z,91.90
2019-02-14T15:28:37.492Z,92.50
2019-02-14T15:32:44.002Z,92.60
2019-02-14T15:36:51.810Z,92.80
2019-02-14T15:40:58.117Z,93.00
2019-02-14T15:45:04.591Z,93.30
2019-02-14T15:49:11.065Z,93.20
2019-02-14T15:53:21.268Z,93.30
2019-02-14T15:57:27.186Z,93.60
2019-02-14T16:01:35.784Z,93.60
2019-02-14T16:05:42.641Z,94.10
2019-02-14T16:09:53.088Z,94.40
2019-02-14T16:14:00.488Z,94.60
2019-02-14T16:18:09.872Z,94.60
2019-02-14T16:22:11.970Z,94.80
2019-02-14T16:26:23.268Z,95.00
2019-02-14T16:30:33.341Z,95.40
2019-02-14T16:34:39.752Z,95.50
2019-02-14T16:38:46.447Z,95.30
2019-02-14T16:42:54.537Z,95.40
2019-02-14T16:47:01.238Z,95.30
2019-02-14T16:51:09.300Z,95.70
2019-02-14T16:55:19.999Z,95.90
2019-02-14T17:03:36.896Z,96.00
2019-02-14T17:07:43.262Z,96.10
2019-02-14T17:11:52.818Z,96.00
2019-02-14T17:15:59.814Z,96.10
2019-02-14T17:20:07.301Z,95.70
2019-02-14T17:24:15.115Z,95.90
2019-02-14T17:28:21.469Z,95.80
2019-02-14T17:32:32.044Z,95.80
2019-02-14T17:36:41.861Z,96.10
2019-02-14T17:44:57.838Z,96.10
2019-02-14T17:49:05.197Z,96.60
2019-02-14T17:53:11.159Z,97.10
2019-02-14T17:57:19.739Z,97.40
2019-02-14T18:01:26.909Z,97.40
2019-02-14T18:05:35.126Z,97.30
2019-02-14T18:09:41.565Z,97.70
2019-02-14T18:13:50.131Z,97.50
2019-02-14T18:17:56.706Z,97.50
2019-02-14T18:22:03.980Z,97.60
2019-02-14T18:26:32.880Z,97.70
2019-02-14T18:30:39.771Z,98.00
2019-02-14T18:34:46.211Z,98.10
2019-02-14T18:39:13.079Z,98.20
2019-02-14T18:43:25.436Z,98.80
2019-02-14T18:47:39.455Z,98.40
2019-02-14T18:55:54.089Z,98.70
2019-02-14T19:00:00.414Z,98.70
2019-02-14T19:04:08.466Z,98.60
2019-02-14T19:08:17.218Z,98.60
2019-02-14T19:12:28.037Z,98.70
2019-02-14T19:16:36.037Z,98.90
2019-02-14T19:21:02.367Z,98.90
2019-02-14T19:25:09.086Z,99.90
2019-02-14T19:29:17.315Z,98.90
2019-02-14T19:33:27.952Z,99.00
2019-02-14T19:37:34.627Z,99.00
2019-02-14T19:41:40.947Z,99.10
2019-02-14T19:46:07.142Z,98.80
2019-02-14T19:50:13.496Z,99.10
2019-02-14T19:54:21.710Z,99.30
2019-02-14T19:58:28.051Z,99.90
2019-02-14T20:02:35.996Z,99.90
2019-02-14T20:11:37.185Z,99.90
2019-02-14T20:20:11.275Z,99.90
2019-02-14T20:24:17.677Z,99.90
2019-02-14T20:28:27.906Z,99.90
2019-02-14T20:32:34.325Z,99.90
2019-02-14T20:36:41.076Z,99.90
2019-02-14T20:41:06.778Z,99.80
2019-02-14T20:45:14.131Z,99.90
2019-02-14T20:49:20.433Z,99.90
2019-02-14T20:53:30.064Z,99.90
2019-02-14T20:57:36.280Z,99.70
2019-02-14T21:05:46.720Z,99.90
2019-02-14T21:09:54.238Z,99.30
2019-02-14T21:14:00.565Z,99.50
2019-02-14T21:18:10.363Z,99.40
2019-02-14T21:22:18.795Z,99.30
2019-02-14T21:26:27.832Z,99.50
2019-02-14T21:30:36.353Z,99.50
2019-02-14T21:38:52.044Z,99.10
2019-02-14T21:42:58.561Z,99.30
2019-02-14T21:47:06.169Z,99.20
2019-02-14T21:51:12.693Z,99.30
2019-02-14T21:55:19.156Z,99.00
2019-02-14T21:59:46.616Z,99.30
2019-02-14T22:03:53.190Z,98.40
2019-02-14T22:08:02.084Z,98.10
2019-02-14T22:12:08.455Z,97.60
2019-02-14T22:16:16.345Z,98.30
2019-02-14T22:24:30.704Z,98.90
2019-02-14T22:28:37.158Z,97.60
2019-02-14T22:32:48.110Z,98.30
2019-02-14T22:36:54.448Z,98.70
2019-02-14T22:41:00.850Z,99.00
2019-02-14T22:45:08.539Z,98.70
2019-02-14T22:49:16.284Z,98.70
2019-02-14T22:53:22.563Z,99.00
2019-02-14T22:57:32.822Z,99.10
2019-02-14T23:01:39.846Z,99.10
2019-02-14T23:05:48.533Z,99.10
2019-02-14T23:09:56.215Z,99.20
2019-02-14T23:14:04.090Z,99.20
2019-02-14T23:18:11.882Z,98.60
2019-02-14T23:22:20.435Z,98.60
2019-02-14T23:26:31.109Z,98.60
2019-02-14T23:30:38.043Z,98.60
2019-02-14T23:34:45.405Z,98.80
2019-02-14T23:38:52.426Z,99.00
2019-02-14T23:43:04.407Z,98.80
2019-02-14T23:47:08.084Z,98.50
2019-02-14T23:51:14.379Z,98.40
2019-02-14T23:55:21.549Z,98.70
2019-02-14T23:59:29.140Z,99.50
